createdAt,value
2022-10-19T00:01:03.118Z,4.57
2022-10-19T00:06:17.876Z,4.70
2022-10-19T00:11:21.857Z,4.97
2022-10-19T00:16:27.067Z,4.60
2022-10-19T00:21:32.371Z,5.55
2022-10-19T00:26:36.209Z,4.43
2022-10-19T00:31:40.421Z,4.90
2022-10-19T00:36:45.580Z,4.75
2022-10-19T00:41:50.002Z,5.22
2022-10-19T00:46:54.223Z,5.43
2022-10-19T00:52:03.952Z,5.28
2022-10-19T00:57:08.897Z,5.45
2022-10-19T01:02:13.640Z,5.25
2022-10-19T01:07:19.391Z,5.55
2022-10-19T01:12:34.172Z,4.87
2022-10-19T01:17:50.686Z,6.15
2022-10-19T01:23:06.665Z,6.30
2022-10-19T01:28:25.649Z,5.50
2022-10-19T01:33:40.180Z,5.05
2022-10-19T01:38:52.152Z,5.70
2022-10-19T01:44:01.371Z,5.15
2022-10-19T01:49:12.837Z,5.32
2022-10-19T01:54:20.076Z,5.22
2022-10-19T01:59:24.580Z,5.22
2022-10-19T02:04:29.873Z,4.72
2022-10-19T02:09:33.640Z,5.93
2022-10-19T02:14:41.080Z,4.75
2022-10-19T02:19:46.092Z,5.53
2022-10-19T02:24:49.867Z,4.93
2022-10-19T02:29:54.944Z,5.03
2022-10-19T02:35:00.086Z,5.05
2022-10-19T02:40:04.163Z,5.80
2022-10-19T02:45:11.351Z,4.95
2022-10-19T02:50:18.010Z,5.00
2022-10-19T02:55:21.791Z,5.07
2022-10-19T03:00:25.449Z,5.57
2022-10-19T03:05:30.840Z,4.62
2022-10-19T03:10:34.578Z,5.60
2022-10-19T03:15:38.261Z,4.68
2022-10-19T03:20:43.284Z,4.65
2022-10-19T03:25:47.000Z,5.75
2022-10-19T03:30:50.704Z,4.50
2022-10-19T03:36:18.449Z,4.78
2022-10-19T03:41:23.111Z,4.62
2022-10-19T03:46:26.969Z,5.50
2022-10-19T03:51:33.363Z,5.30
2022-10-19T03:56:37.478Z,5.43
2022-10-19T04:01:43.370Z,4.60
2022-10-19T04:06:50.847Z,5.20
2022-10-19T04:11:54.610Z,5.37
2022-10-19T04:16:58.289Z,5.35
2022-10-19T04:22:03.283Z,4.78
2022-10-19T04:27:06.927Z,5.50
2022-10-19T04:32:10.659Z,4.40
2022-10-19T04:37:15.672Z,4.82
2022-10-19T04:42:19.288Z,5.18
2022-10-19T04:47:22.994Z,3.95
2022-10-19T04:52:28.010Z,5.15
2022-10-19T04:57:31.952Z,4.30
2022-10-19T05:02:35.855Z,4.65
2022-10-19T05:07:40.940Z,4.30
2022-10-19T05:12:44.644Z,4.32
2022-10-19T05:17:48.398Z,5.18
2022-10-19T05:22:53.399Z,4.97
2022-10-19T05:27:57.064Z,4.53
2022-10-19T05:33:00.706Z,4.57
2022-10-19T05:38:05.744Z,4.45
2022-10-19T05:43:09.406Z,5.50
2022-10-19T05:48:13.066Z,4.82
2022-10-19T05:53:18.056Z,5.12
2022-10-19T05:58:22.008Z,4.97
2022-10-19T06:03:27.225Z,5.28
2022-10-19T06:08:32.353Z,5.22
2022-10-19T06:13:36.682Z,5.43
2022-10-19T06:18:41.865Z,4.90
2022-10-19T06:23:51.281Z,6.65
2022-10-19T06:28:56.708Z,6.43
2022-10-19T06:34:00.699Z,5.87
2022-10-19T06:39:05.761Z,6.43
2022-10-19T06:44:10.295Z,6.28
2022-10-19T06:49:15.129Z,5.97
2022-10-19T06:54:20.235Z,6.50
2022-10-19T06:59:23.948Z,5.95
2022-10-19T07:04:27.774Z,5.32
2022-10-19T07:09:32.857Z,5.32
2022-10-19T07:14:38.761Z,5.57
2022-10-19T07:19:42.649Z,5.18
2022-10-19T07:24:47.679Z,5.78
2022-10-19T07:29:51.408Z,5.53
2022-10-19T07:34:55.041Z,6.32
2022-10-19T07:40:00.163Z,5.30
2022-10-19T07:45:03.871Z,5.97
2022-10-19T07:50:07.945Z,5.97
2022-10-19T07:55:12.938Z,5.87
2022-10-19T08:00:16.921Z,6.07
2022-10-19T08:05:20.593Z,5.45
2022-10-19T08:10:25.672Z,6.10
2022-10-19T08:15:30.580Z,5.22
2022-10-19T08:20:34.283Z,5.62
2022-10-19T08:25:39.423Z,5.87
2022-10-19T08:30:43.129Z,5.25
2022-10-19T08:35:46.800Z,4.68
2022-10-19T08:40:51.934Z,4.62
2022-10-19T08:46:03.222Z,5.78
2022-10-19T08:51:09.280Z,6.05
2022-10-19T09:01:56.389Z,5.07
2022-10-19T09:07:19.335Z,5.37
2022-10-19T09:12:34.840Z,4.60
2022-10-19T09:17:38.745Z,4.60
2022-10-19T09:22:44.432Z,3.87
2022-10-19T09:27:59.421Z,3.62
2022-10-19T09:33:04.139Z,3.65
2022-10-19T09:38:08.383Z,3.03
2022-10-19T09:43:21.613Z,4.25
2022-10-19T09:48:31.687Z,2.83
2022-10-19T09:53:35.770Z,3.12
2022-10-19T09:58:48.502Z,2.17
2022-10-19T10:03:55.213Z,2.20
2022-10-19T10:09:00.011Z,2.07
2022-10-19T10:14:17.224Z,1.98
2022-10-19T10:19:24.181Z,2.15
2022-10-19T10:24:32.884Z,2.40
2022-10-19T10:29:39.784Z,2.17
2022-10-19T10:34:54.787Z,1.77
2022-10-19T10:40:03.910Z,1.90
2022-10-19T10:45:18.486Z,1.98
2022-10-19T10:50:24.976Z,1.95
2022-10-19T10:55:29.808Z,1.80
2022-10-19T11:00:37.767Z,2.22
2022-10-19T11:05:45.810Z,2.20
2022-10-19T11:16:03.419Z,1.98
2022-10-19T11:21:10.780Z,2.17
2022-10-19T11:26:26.696Z,2.40
2022-10-19T11:31:42.873Z,2.40
2022-10-19T11:36:54.912Z,1.85
2022-10-19T11:42:08.096Z,2.25
2022-10-19T11:47:29.038Z,2.72
2022-10-19T11:52:40.709Z,2.22
2022-10-19T11:57:52.149Z,2.28
2022-10-19T12:03:24.982Z,2.92
2022-10-19T12:08:42.778Z,2.25
2022-10-19T12:13:52.172Z,2.47
2022-10-19T12:19:01.517Z,2.60
2022-10-19T12:24:11.757Z,3.05
2022-10-19T12:29:18.856Z,2.33
2022-10-19T12:34:33.598Z,2.60
2022-10-19T12:39:44.354Z,2.37
2022-10-19T12:45:22.006Z,2.40
2022-10-19T12:51:06.376Z,2.22
2022-10-19T12:56:15.744Z,2.55
2022-10-19T13:01:23.530Z,2.47
2022-10-19T13:06:37.155Z,3.20
2022-10-19T13:12:23.544Z,3.40
2022-10-19T13:17:43.838Z,3.12
2022-10-19T13:22:50.883Z,2.83
2022-10-19T13:27:55.995Z,2.97
2022-10-19T13:32:59.726Z,2.90
2022-10-19T13:38:26.438Z,2.87
2022-10-19T13:43:33.681Z,3.05
2022-10-19T13:48:51.056Z,3.08
2022-10-19T13:54:07.758Z,2.87
2022-10-19T13:59:33.408Z,3.00
2022-10-19T14:04:46.139Z,2.90
2022-10-19T14:10:08.998Z,3.17
2022-10-19T14:15:21.486Z,3.35
2022-10-19T14:20:31.776Z,3.60
2022-10-19T14:25:36.864Z,3.80
2022-10-19T14:30:40.588Z,3.85
2022-10-19T14:35:49.998Z,3.75
2022-10-19T14:40:55.984Z,3.25
2022-10-19T14:46:14.085Z,2.83
2022-10-19T14:51:32.989Z,3.12
2022-10-19T14:56:44.333Z,3.15
2022-10-19T15:01:51.048Z,2.95
2022-10-19T15:06:56.445Z,2.40
2022-10-19T15:12:08.415Z,3.20
2022-10-19T15:17:24.787Z,3.22
2022-10-19T15:22:40.494Z,4.03
2022-10-19T15:27:47.561Z,3.60
2022-10-19T15:32:55.059Z,2.93
2022-10-19T15:38:04.218Z,5.35
2022-10-19T15:43:35.835Z,3.53
2022-10-19T15:48:51.117Z,3.50
2022-10-19T15:53:59.159Z,3.25
2022-10-19T15:59:09.401Z,3.97
2022-10-19T16:04:13.136Z,4.10
2022-10-19T16:09:19.808Z,3.80
2022-10-19T16:14:26.440Z,3.65
2022-10-19T16:19:30.495Z,3.25
2022-10-19T16:24:34.331Z,2.90
2022-10-19T16:29:39.327Z,6.68
2022-10-19T16:34:43.076Z,5.82
2022-10-19T16:39:46.806Z,5.95
2022-10-19T16:44:51.820Z,4.00
2022-10-19T16:49:59.940Z,5.80
2022-10-19T16:55:03.771Z,3.60
2022-10-19T17:00:10.108Z,3.65
2022-10-19T17:05:13.923Z,7.05
2022-10-19T17:10:17.944Z,4.40
2022-10-19T17:15:41.907Z,3.40
2022-10-19T17:20:46.457Z,3.40
2022-10-19T17:25:50.419Z,3.55
2022-10-19T17:30:57.652Z,3.25
2022-10-19T17:36:06.652Z,3.47
2022-10-19T17:41:12.755Z,3.17
2022-10-19T17:46:19.986Z,3.15
2022-10-19T17:51:27.170Z,3.50
2022-10-19T17:56:31.100Z,3.33
2022-10-19T18:01:36.895Z,3.65
2022-10-19T18:06:40.861Z,3.20
2022-10-19T18:11:45.861Z,3.97
2022-10-19T18:16:51.988Z,4.15
2022-10-19T18:21:55.760Z,4.50
2022-10-19T18:26:59.452Z,3.95
2022-10-19T18:37:08.510Z,4.50
2022-10-19T18:42:13.096Z,3.45
2022-10-19T18:47:18.267Z,4.07
2022-10-19T18:52:21.980Z,4.00
2022-10-19T18:57:30.852Z,3.87
2022-10-19T19:02:46.507Z,4.15
2022-10-19T19:07:51.467Z,3.85
2022-10-19T19:12:55.241Z,3.83
2022-10-19T19:18:00.281Z,3.72
2022-10-19T19:23:04.086Z,3.92
2022-10-19T19:28:07.783Z,4.05
2022-10-19T19:33:13.548Z,3.60
2022-10-19T19:38:17.540Z,4.03
2022-10-19T19:43:21.230Z,4.10
2022-10-19T19:48:26.346Z,3.85
2022-10-19T19:53:30.027Z,3.60
2022-10-19T19:58:33.796Z,3.97
2022-10-19T20:03:39.262Z,3.35
2022-10-19T20:08:43.825Z,3.40
2022-10-19T20:13:47.791Z,3.85
2022-10-19T20:18:56.482Z,4.65
2022-10-19T20:24:00.432Z,4.60
2022-10-19T20:29:05.257Z,4.80
2022-10-19T20:34:13.568Z,3.95
2022-10-19T20:39:17.430Z,4.07
2022-10-19T20:44:21.646Z,4.15
2022-10-19T20:49:26.664Z,4.45
2022-10-19T20:54:30.386Z,4.05
2022-10-19T20:59:34.189Z,4.03
2022-10-19T21:04:39.451Z,3.90
2022-10-19T21:09:43.360Z,4.82
2022-10-19T21:14:47.100Z,4.90
2022-10-19T21:19:52.110Z,4.03
2022-10-19T21:24:55.913Z,5.10
2022-10-19T21:29:59.571Z,4.57
2022-10-19T21:35:05.808Z,5.72
2022-10-19T21:40:10.431Z,4.40
2022-10-19T21:45:30.665Z,5.28
2022-10-19T21:50:36.039Z,5.43
2022-10-19T21:55:39.711Z,6.12
2022-10-19T22:00:44.425Z,5.43
2022-10-19T22:05:53.300Z,6.15
2022-10-19T22:10:57.063Z,6.32
2022-10-19T22:16:05.815Z,6.20
2022-10-19T22:21:13.842Z,6.70
2022-10-19T22:26:20.257Z,6.35
2022-10-19T22:31:23.996Z,6.82
2022-10-19T22:36:29.576Z,6.35
2022-10-19T22:42:28.076Z,6.80
2022-10-19T22:47:50.939Z,6.72
2022-10-19T22:52:55.964Z,7.25
2022-10-19T22:57:59.710Z,7.07
2022-10-19T23:03:03.420Z,7.10
2022-10-19T23:08:08.506Z,7.15
2022-10-19T23:13:12.183Z,7.57
2022-10-19T23:18:15.931Z,7.75
2022-10-19T23:23:21.112Z,7.37
2022-10-19T23:28:24.992Z,7.55
2022-10-19T23:33:28.731Z,7.75
2022-10-19T23:38:33.865Z,7.35
2022-10-19T23:43:38.569Z,7.30
2022-10-19T23:48:42.715Z,7.20
2022-10-19T23:53:49.680Z,8.50
2022-10-19T23:58:53.492Z,8.32
